If you wish to contribute or participate in the discussions about articles you are invited to join SKYbrary as a registered user

 Actions

Alcantarilla Airport

From SKYbrary Wiki

LERI
Airport
ICAO: LERI
Summary
Name Alcantarilla Airport
Region Europe
Territory Spain ES.gif
Location
Serving Murcia
Elevation 76.2 m
250 ft
250 ft76.2 m
Type medium airport
Coordinates 37° 57' 3.9996", -1° 13' 49.1484"
Runways
Designator Length Width Surface ROPS
7/25 938 m3,077.428 ft 45 m147.638 ft ASP /


METAR
Observation LERI 261400Z 09016KT 9999 SCT050 27/18 Q1026 NOSIG
Station Murcia / Alcantarilla
Date/Time 26 September 2018 14:00:00
Wind direction 90°
Wind speed 16 kts
Lowest cloud amount scattered clouds
Temperature 27°C
Dew point 18°C
Humidity 57%
QNH 1026 hPa
Weather condition n/a